Time;durP1;ratioP1;P1;durP2;ratioP2;P2;SDS_P1;SDS_P2;PMS_P1;PMS_P2;Temp;Humidity;BMP_temperature;BMP_pressure;BME280_temperature;BME280_humidity;BME280_pressure;Samples;Min_cycle;Max_cycle;Signal;HPM_P1;HPM_P2
2023/07/12 00:04:13;;;;;;;9.35;5.10;;;;;;;;;;9963800;28;20122;-66
2023/07/12 00:09:11;;;;;;;8.52;6.18;;;;;;;;;;9945399;28;20051;-65
2023/07/12 00:14:03;;;;;;;6.22;4.75;;;;;;;;;;9944926;28;20469;-65
2023/07/12 00:18:56;;;;;;;9.82;5.57;;;;;;;;;;9949705;28;20043;-65
2023/07/12 00:23:51;;;;;;;8.15;5.00;;;;;;;;;;9952142;28;20051;-65
2023/07/12 00:28:43;;;;;;;8.18;5.13;;;;;;;;;;9951959;28;20042;-65
2023/07/12 00:33:36;;;;;;;8.23;5.03;;;;;;;;;;9934841;28;20098;-65
2023/07/12 00:38:29;;;;;;;14.77;5.38;;;;;;;;;;9937039;28;20134;-65
2023/07/12 00:43:29;;;;;;;11.55;7.00;;;;;;;;;;9950043;28;20030;-66
2023/07/12 00:48:21;;;;;;;12.38;4.82;;;;;;;;;;9973536;28;20074;-65
2023/07/12 00:53:23;;;;;;;8.90;5.60;;;;;;;;;;9978086;28;20133;-65
2023/07/12 00:58:15;;;;;;;7.88;5.25;;;;;;;;;;9964747;28;20039;-65
2023/07/12 01:03:12;;;;;;;12.88;5.90;;;;;;;;;;9988138;28;20522;-65
2023/07/12 01:08:07;;;;;;;11.18;5.70;;;;;;;;;;9964118;28;20069;-65
2023/07/12 01:12:59;;;;;;;7.45;5.43;;;;;;;;;;9965552;28;20054;-65
2023/07/12 01:17:52;;;;;;;7.55;5.10;;;;;;;;;;9969198;28;20125;-64
2023/07/12 01:22:44;;;;;;;9.32;4.82;;;;;;;;;;9934829;28;20098;-65
2023/07/12 01:27:36;;;;;;;8.65;5.88;;;;;;;;;;9972343;28;20056;-66
2023/07/12 01:32:31;;;;;;;9.45;5.22;;;;;;;;;;9955366;28;20357;-65
2023/07/12 01:37:23;;;;;;;8.63;4.85;;;;;;;;;;9949909;28;20142;-65
2023/07/12 01:42:16;;;;;;;5.97;4.43;;;;;;;;;;9950601;28;20047;-64
2023/07/12 01:47:08;;;;;;;7.25;5.00;;;;;;;;;;9967592;28;20047;-65
2023/07/12 01:52:00;;;;;;;8.35;5.40;;;;;;;;;;9966338;28;20053;-66
2023/07/12 01:56:52;;;;;;;6.68;4.85;;;;;;;;;;9963366;28;20351;-66
2023/07/12 02:01:44;;;;;;;8.90;6.00;;;;;;;;;;9959519;28;20043;-65
2023/07/12 02:06:36;;;;;;;12.02;4.50;;;;;;;;;;9947702;28;20050;-65
2023/07/12 02:11:28;;;;;;;7.28;5.47;;;;;;;;;;9952667;28;21011;-66
2023/07/12 02:16:19;;;;;;;5.78;4.55;;;;;;;;;;9999041;28;20042;-65
2023/07/12 02:21:11;;;;;;;7.10;4.85;;;;;;;;;;9952573;28;20496;-64
2023/07/12 02:26:03;;;;;;;8.70;6.32;;;;;;;;;;9946030;28;20073;-65
2023/07/12 02:31:13;;;;;;;8.13;5.10;;;;;;;;;;9946007;28;20074;-65
2023/07/12 02:36:05;;;;;;;11.25;5.50;;;;;;;;;;9957990;28;20381;-65
2023/07/12 02:40:57;;;;;;;9.10;5.30;;;;;;;;;;9965348;28;20413;-67
2023/07/12 02:45:49;;;;;;;10.45;5.47;;;;;;;;;;9974219;28;20047;-65
2023/07/12 02:50:41;;;;;;;6.93;5.18;;;;;;;;;;9952659;28;20462;-64
2023/07/12 02:55:35;;;;;;;6.95;4.65;;;;;;;;;;9944007;28;20074;-63
2023/07/12 03:00:27;;;;;;;8.18;5.07;;;;;;;;;;9946526;28;20707;-63
2023/07/12 03:05:19;;;;;;;8.23;6.65;;;;;;;;;;9944398;28;20062;-62
2023/07/12 03:10:13;;;;;;;6.80;5.65;;;;;;;;;;9945496;28;20051;-63
2023/07/12 03:15:05;;;;;;;9.95;5.85;;;;;;;;;;9945488;28;20043;-65
2023/07/12 03:19:57;;;;;;;8.27;5.55;;;;;;;;;;9944500;28;20046;-64
2023/07/12 03:24:49;;;;;;;8.88;6.45;;;;;;;;;;9943830;28;20046;-63
2023/07/12 03:29:41;;;;;;;12.07;7.63;;;;;;;;;;9944728;28;20142;-66
2023/07/12 03:34:33;;;;;;;7.82;6.80;;;;;;;;;;9946246;28;20130;-65
2023/07/12 03:39:24;;;;;;;15.13;7.03;;;;;;;;;;9946522;28;20048;-65
2023/07/12 03:44:16;;;;;;;12.57;8.02;;;;;;;;;;9944323;28;20081;-66
2023/07/12 03:49:08;;;;;;;10.35;6.13;;;;;;;;;;9945629;28;20450;-65
2023/07/12 03:54:00;;;;;;;8.05;7.10;;;;;;;;;;9951221;28;20047;-65
2023/07/12 03:58:52;;;;;;;8.82;7.68;;;;;;;;;;9952150;28;20094;-66
2023/07/12 04:03:44;;;;;;;11.90;8.32;;;;;;;;;;9952333;28;20162;-66
2023/07/12 04:08:36;;;;;;;21.23;9.95;;;;;;;;;;9952227;28;20405;-66
2023/07/12 04:13:28;;;;;;;11.48;7.47;;;;;;;;;;9952858;28;20055;-65
2023/07/12 04:18:21;;;;;;;9.88;7.95;;;;;;;;;;9951631;28;20046;-65
2023/07/12 04:23:13;;;;;;;14.40;7.72;;;;;;;;;;9952648;28;20043;-64
2023/07/12 04:28:05;;;;;;;8.85;6.72;;;;;;;;;;9952281;28;20508;-65
2023/07/12 04:32:57;;;;;;;12.55;8.20;;;;;;;;;;9952428;28;20043;-65
2023/07/12 04:37:51;;;;;;;11.18;7.50;;;;;;;;;;9952000;28;20043;-64
2023/07/12 04:42:43;;;;;;;8.82;6.60;;;;;;;;;;9950516;28;20545;-65
2023/07/12 04:47:36;;;;;;;7.60;6.60;;;;;;;;;;9950356;28;20050;-66
2023/07/12 04:52:27;;;;;;;11.93;6.70;;;;;;;;;;9950745;28;20385;-65
2023/07/12 04:57:19;;;;;;;8.43;6.75;;;;;;;;;;9948977;28;20137;-64
2023/07/12 05:02:11;;;;;;;6.63;5.97;;;;;;;;;;9946469;28;20042;-63
2023/07/12 05:07:03;;;;;;;12.02;8.98;;;;;;;;;;9949922;28;20113;-63
2023/07/12 05:11:55;;;;;;;12.85;8.57;;;;;;;;;;9948829;28;20086;-65
2023/07/12 05:16:47;;;;;;;10.82;9.43;;;;;;;;;;9949710;28;20051;-64
2023/07/12 05:21:39;;;;;;;13.50;9.80;;;;;;;;;;9954175;28;20077;-64
2023/07/12 05:26:30;;;;;;;21.88;12.55;;;;;;;;;;9955204;28;20050;-64
2023/07/12 05:31:22;;;;;;;16.17;11.88;;;;;;;;;;9959220;28;20055;-65
2023/07/12 05:36:14;;;;;;;23.67;12.93;;;;;;;;;;9932989;28;20122;-64
2023/07/12 05:41:06;;;;;;;14.82;12.25;;;;;;;;;;9949562;28;20110;-64
2023/07/12 05:45:58;;;;;;;14.90;11.80;;;;;;;;;;9950111;28;20473;-63
2023/07/12 05:50:51;;;;;;;13.15;11.00;;;;;;;;;;9958375;28;20077;-63
2023/07/12 05:55:42;;;;;;;13.38;11.15;;;;;;;;;;9977841;28;20047;-65
2023/07/12 06:00:34;;;;;;;12.52;11.23;;;;;;;;;;9946918;28;20542;-65
2023/07/12 06:05:26;;;;;;;12.65;11.35;;;;;;;;;;9947769;28;20416;-63
2023/07/12 06:10:18;;;;;;;13.80;11.15;;;;;;;;;;9948261;28;20105;-64
2023/07/12 06:15:10;;;;;;;14.23;10.10;;;;;;;;;;9947849;28;20524;-65
2023/07/12 06:20:03;;;;;;;13.27;9.25;;;;;;;;;;9948251;28;20101;-64
2023/07/12 06:24:55;;;;;;;12.25;10.23;;;;;;;;;;9948035;28;20062;-64
2023/07/12 06:29:47;;;;;;;14.10;11.35;;;;;;;;;;9948236;28;20046;-64
2023/07/12 06:34:39;;;;;;;15.25;10.40;;;;;;;;;;9953694;28;20050;-65
2023/07/12 06:39:31;;;;;;;12.82;11.05;;;;;;;;;;9947498;28;20050;-64
2023/07/12 06:44:23;;;;;;;19.15;10.10;;;;;;;;;;9946379;28;20054;-64
2023/07/12 06:49:15;;;;;;;14.13;10.10;;;;;;;;;;9945566;28;20450;-64
2023/07/12 06:54:07;;;;;;;13.93;9.73;;;;;;;;;;9961353;28;20100;-64
2023/07/12 06:58:59;;;;;;;14.57;10.13;;;;;;;;;;9981192;28;20105;-65
2023/07/12 07:03:51;;;;;;;11.15;9.45;;;;;;;;;;9947149;28;20074;-69
2023/07/12 07:08:43;;;;;;;13.80;9.32;;;;;;;;;;9948550;28;20069;-61
2023/07/12 07:13:35;;;;;;;11.00;9.70;;;;;;;;;;9944922;28;20050;-61
2023/07/12 07:18:28;;;;;;;12.23;11.00;;;;;;;;;;9947038;28;20081;-61
2023/07/12 07:23:22;;;;;;;23.00;13.82;;;;;;;;;;9944793;28;20372;-61
2023/07/12 07:28:14;;;;;;;24.67;16.50;;;;;;;;;;9952084;28;20039;-60
2023/07/12 07:33:07;;;;;;;26.13;17.55;;;;;;;;;;9969174;28;20050;-62
2023/07/12 07:37:59;;;;;;;24.85;18.63;;;;;;;;;;9968049;28;20109;-61
2023/07/12 07:42:51;;;;;;;22.77;18.83;;;;;;;;;;9952480;28;20050;-62
2023/07/12 07:47:43;;;;;;;34.75;20.05;;;;;;;;;;9954223;28;20062;-62
2023/07/12 07:52:35;;;;;;;24.90;20.85;;;;;;;;;;9953712;28;20047;-62
2023/07/12 07:57:27;;;;;;;22.95;18.33;;;;;;;;;;9954398;28;20039;-62
2023/07/12 08:02:18;;;;;;;22.85;19.25;;;;;;;;;;9951232;28;20490;-62
2023/07/12 08:07:11;;;;;;;23.98;19.02;;;;;;;;;;9953586;28;20046;-62
2023/07/12 08:12:04;;;;;;;22.23;18.98;;;;;;;;;;9953350;28;20058;-61
2023/07/12 08:16:56;;;;;;;22.95;20.35;;;;;;;;;;9952469;28;20142;-61
2023/07/12 08:21:49;;;;;;;24.67;20.25;;;;;;;;;;9950366;28;20702;-61
2023/07/12 08:26:41;;;;;;;22.23;20.17;;;;;;;;;;9952710;28;20481;-63
2023/07/12 08:31:45;;;;;;;28.45;21.38;;;;;;;;;;9953666;28;20496;-60
2023/07/12 08:36:37;;;;;;;34.08;23.52;;;;;;;;;;9959482;28;20047;-61
2023/07/12 08:41:29;;;;;;;26.05;23.67;;;;;;;;;;9953199;28;20053;-62
2023/07/12 08:46:24;;;;;;;25.08;22.45;;;;;;;;;;9954624;28;20035;-61
2023/07/12 08:51:25;;;;;;;24.48;21.65;;;;;;;;;;9964354;28;20090;-61
2023/07/12 08:56:19;;;;;;;27.02;24.02;;;;;;;;;;9952257;28;20122;-61
2023/07/12 09:01:19;;;;;;;24.80;22.05;;;;;;;;;;9955693;28;20046;-60
2023/07/12 09:06:15;;;;;;;28.20;24.08;;;;;;;;;;9968674;28;20051;-63
2023/07/12 09:11:19;;;;;;;36.47;23.25;;;;;;;;;;9954793;28;20089;-66
2023/07/12 09:16:31;;;;;;;23.58;21.48;;;;;;;;;;9950528;28;20047;-65
2023/07/12 09:21:25;;;;;;;26.35;23.35;;;;;;;;;;9948267;28;20551;-68
2023/07/12 09:26:25;;;;;;;22.00;20.00;;;;;;;;;;9952067;28;20429;-68
2023/07/12 09:31:23;;;;;;;24.30;20.98;;;;;;;;;;9950135;28;20062;-69
2023/07/12 09:36:17;;;;;;;24.38;21.30;;;;;;;;;;9950648;28;20046;-68
2023/07/12 09:41:20;;;;;;;20.85;18.70;;;;;;;;;;9948679;28;20126;-69
2023/07/12 09:46:30;;;;;;;24.67;18.55;;;;;;;;;;9947065;28;20425;-67
2023/07/12 09:51:44;;;;;;;20.83;18.70;;;;;;;;;;9940871;28;20080;-68
2023/07/12 09:56:46;;;;;;;18.88;16.85;;;;;;;;;;9943301;28;20549;-68
2023/07/12 10:01:50;;;;;;;17.58;15.93;;;;;;;;;;9925080;28;20051;-68
2023/07/12 10:06:46;;;;;;;18.73;16.83;;;;;;;;;;9958308;28;20499;-68
2023/07/12 10:12:10;;;;;;;20.17;17.85;;;;;;;;;;9958769;28;20113;-68
2023/07/12 10:17:02;;;;;;;17.27;15.55;;;;;;;;;;9942005;28;20039;-68
2023/07/12 10:21:57;;;;;;;17.17;15.07;;;;;;;;;;9958180;28;20058;-68
2023/07/12 10:26:49;;;;;;;18.48;15.45;;;;;;;;;;9956212;28;20077;-68
2023/07/12 10:31:45;;;;;;;19.63;15.57;;;;;;;;;;9943704;28;20050;-68
2023/07/12 10:36:38;;;;;;;16.42;14.95;;;;;;;;;;9977766;28;20093;-66
2023/07/12 10:41:34;;;;;;;15.77;14.15;;;;;;;;;;9968807;28;20548;-67
2023/07/12 10:46:33;;;;;;;15.55;13.07;;;;;;;;;;9933545;28;20101;-68
2023/07/12 10:51:40;;;;;;;15.48;13.88;;;;;;;;;;9961066;28;20133;-67
2023/07/12 10:56:50;;;;;;;14.00;12.83;;;;;;;;;;9942395;28;20042;-67
2023/07/12 11:01:45;;;;;;;19.48;14.45;;;;;;;;;;9936750;28;20126;-67
2023/07/12 11:07:00;;;;;;;18.75;14.38;;;;;;;;;;9940903;28;20050;-69
2023/07/12 11:12:07;;;;;;;16.98;13.35;;;;;;;;;;9939327;28;20055;-69
2023/07/12 11:17:12;;;;;;;16.33;13.48;;;;;;;;;;9975449;28;20139;-68
2023/07/12 11:22:12;;;;;;;14.95;12.77;;;;;;;;;;9927352;28;20061;-68
2023/07/12 11:27:09;;;;;;;14.48;11.98;;;;;;;;;;9948063;28;20083;-68
2023/07/12 11:32:14;;;;;;;14.50;13.00;;;;;;;;;;9956790;28;20543;-68
2023/07/12 11:37:25;;;;;;;14.52;12.93;;;;;;;;;;9947576;28;20802;-68
2023/07/12 11:42:28;;;;;;;18.92;12.15;;;;;;;;;;9943513;28;20069;-68
2023/07/12 11:47:20;;;;;;;12.20;10.95;;;;;;;;;;9961550;28;20051;-67
2023/07/12 11:52:15;;;;;;;12.63;11.40;;;;;;;;;;9963543;28;20063;-67
2023/07/12 11:57:12;;;;;;;16.63;12.15;;;;;;;;;;9953757;28;20042;-68
2023/07/12 12:02:10;;;;;;;14.40;11.45;;;;;;;;;;9945227;28;20059;-67
2023/07/12 12:07:12;;;;;;;19.02;11.50;;;;;;;;;;9956129;28;20134;-68
2023/07/12 12:12:07;;;;;;;11.93;10.73;;;;;;;;;;9974098;28;20061;-67
2023/07/12 12:17:05;;;;;;;12.90;10.80;;;;;;;;;;9963396;28;20681;-67
2023/07/12 12:22:03;;;;;;;20.65;12.40;;;;;;;;;;9981122;28;20098;-67
2023/07/12 12:27:02;;;;;;;14.85;11.02;;;;;;;;;;9966804;28;20137;-67
2023/07/12 12:32:15;;;;;;;17.38;10.52;;;;;;;;;;9964361;28;20051;-67
2023/07/12 12:37:10;;;;;;;16.65;10.75;;;;;;;;;;9956055;28;20046;-69
2023/07/12 12:42:25;;;;;;;18.33;10.90;;;;;;;;;;9953157;28;20066;-68
2023/07/12 12:47:26;;;;;;;15.30;12.75;;;;;;;;;;9962767;28;20051;-67
2023/07/12 12:52:27;;;;;;;13.82;10.73;;;;;;;;;;9968209;28;20050;-68
2023/07/12 12:57:21;;;;;;;14.27;10.77;;;;;;;;;;9962747;28;20129;-68
2023/07/12 13:02:18;;;;;;;15.32;10.32;;;;;;;;;;9967255;28;20544;-69
2023/07/12 13:07:29;;;;;;;13.85;10.35;;;;;;;;;;9953436;28;20047;-69
2023/07/12 13:12:42;;;;;;;16.53;11.53;;;;;;;;;;9989087;28;20050;-68
2023/07/12 13:17:36;;;;;;;18.27;10.75;;;;;;;;;;9950883;28;20070;-69
2023/07/12 13:22:48;;;;;;;19.92;10.90;;;;;;;;;;9963995;28;20081;-68
2023/07/12 13:27:43;;;;;;;21.08;10.63;;;;;;;;;;9975817;28;20393;-68
2023/07/12 13:32:35;;;;;;;20.77;11.02;;;;;;;;;;9932911;28;20634;-69
2023/07/12 13:37:28;;;;;;;12.15;10.32;;;;;;;;;;9950970;28;20070;-67
2023/07/12 13:42:21;;;;;;;14.48;10.00;;;;;;;;;;9948460;28;20077;-68
2023/07/12 13:47:21;;;;;;;13.57;9.90;;;;;;;;;;9949444;28;20070;-68
2023/07/12 13:52:19;;;;;;;14.02;11.23;;;;;;;;;;9948424;28;20137;-69
2023/07/12 13:57:12;;;;;;;16.50;10.52;;;;;;;;;;9947906;28;20046;-67
2023/07/12 14:02:22;;;;;;;16.55;10.95;;;;;;;;;;9937803;28;20082;-66
2023/07/12 14:07:19;;;;;;;18.65;10.13;;;;;;;;;;9948815;28;20742;-67
2023/07/12 14:12:31;;;;;;;16.75;10.98;;;;;;;;;;9945298;28;20084;-67
2023/07/12 14:17:27;;;;;;;11.88;9.73;;;;;;;;;;9966647;28;20105;-68
2023/07/12 14:22:31;;;;;;;12.32;10.30;;;;;;;;;;9959489;28;20046;-66
2023/07/12 14:27:25;;;;;;;17.13;10.57;;;;;;;;;;9950305;28;20086;-66
2023/07/12 14:32:21;;;;;;;12.23;9.98;;;;;;;;;;9970781;28;20552;-68
2023/07/12 14:37:15;;;;;;;22.33;11.48;;;;;;;;;;9959656;28;20042;-66
2023/07/12 14:42:15;;;;;;;12.48;11.13;;;;;;;;;;9955539;28;20513;-65
2023/07/12 14:47:11;;;;;;;17.23;11.75;;;;;;;;;;9941262;28;20065;-65
2023/07/12 14:52:05;;;;;;;17.58;11.35;;;;;;;;;;9932756;28;20067;-65
2023/07/12 14:57:01;;;;;;;18.03;11.30;;;;;;;;;;9938984;28;20057;-66
2023/07/12 15:02:20;;;;;;;19.58;11.00;;;;;;;;;;9941877;28;20046;-66
2023/07/12 15:07:40;;;;;;;15.88;11.85;;;;;;;;;;9946488;28;20176;-65
2023/07/12 15:12:34;;;;;;;18.50;11.90;;;;;;;;;;9945121;28;20050;-67
2023/07/12 15:17:26;;;;;;;23.10;12.52;;;;;;;;;;9947633;28;20370;-70
2023/07/12 15:22:18;;;;;;;14.60;10.82;;;;;;;;;;9945024;28;20042;-65
2023/07/12 15:27:17;;;;;;;15.57;11.77;;;;;;;;;;9952962;28;20070;-70
2023/07/12 15:32:10;;;;;;;15.52;12.75;;;;;;;;;;9975265;28;20097;-69
2023/07/12 15:37:03;;;;;;;13.50;11.02;;;;;;;;;;9953439;28;20417;-70
2023/07/12 15:41:55;;;;;;;27.67;13.45;;;;;;;;;;9966099;28;20105;-70
2023/07/12 15:46:47;;;;;;;15.32;12.52;;;;;;;;;;9926146;28;20046;-70
2023/07/12 15:51:43;;;;;;;19.35;12.65;;;;;;;;;;9950585;28;20429;-70
2023/07/12 15:56:35;;;;;;;13.77;12.32;;;;;;;;;;9950795;28;20042;-70
2023/07/12 16:01:29;;;;;;;16.75;13.10;;;;;;;;;;9951316;28;20378;-70
2023/07/12 16:06:22;;;;;;;25.77;11.93;;;;;;;;;;9967215;28;20113;-71
2023/07/12 16:11:25;;;;;;;20.33;11.88;;;;;;;;;;9955387;28;20050;-70
2023/07/12 16:16:18;;;;;;;15.65;12.50;;;;;;;;;;9936026;28;20047;-71
2023/07/12 16:21:17;;;;;;;13.90;11.93;;;;;;;;;;9961549;28;20070;-70
2023/07/12 16:26:20;;;;;;;16.05;11.60;;;;;;;;;;9951876;28;20488;-70
2023/07/12 16:31:32;;;;;;;16.50;11.98;;;;;;;;;;9952282;28;20093;-70
2023/07/12 16:36:25;;;;;;;16.02;11.88;;;;;;;;;;9954769;28;20047;-70
2023/07/12 16:41:28;;;;;;;14.68;11.27;;;;;;;;;;9985640;28;20053;-70
2023/07/12 16:46:21;;;;;;;12.57;11.27;;;;;;;;;;9974369;28;20050;-69
2023/07/12 16:51:15;;;;;;;12.57;10.90;;;;;;;;;;9951107;28;20050;-69
2023/07/12 16:56:12;;;;;;;19.90;11.63;;;;;;;;;;9965697;28;20433;-72
2023/07/12 17:01:23;;;;;;;14.63;11.77;;;;;;;;;;9950142;28;20043;-64
2023/07/12 17:06:16;;;;;;;15.35;11.02;;;;;;;;;;9968281;28;20445;-71
2023/07/12 17:11:12;;;;;;;23.27;13.50;;;;;;;;;;9949369;28;20043;-70
2023/07/12 17:16:05;;;;;;;16.33;12.95;;;;;;;;;;9973854;28;20481;-71
2023/07/12 17:20:58;;;;;;;15.55;11.55;;;;;;;;;;9972587;28;20544;-71
2023/07/12 17:25:52;;;;;;;14.70;11.30;;;;;;;;;;9955904;28;20126;-71
2023/07/12 17:30:45;;;;;;;14.70;10.95;;;;;;;;;;9960981;28;20047;-66
2023/07/12 17:35:37;;;;;;;13.88;11.35;;;;;;;;;;9970931;28;20440;-66
2023/07/12 17:40:29;;;;;;;14.13;10.07;;;;;;;;;;9953522;28;20062;-68
2023/07/12 17:45:21;;;;;;;18.45;9.75;;;;;;;;;;9965433;28;20081;-71
2023/07/12 17:50:14;;;;;;;19.33;10.23;;;;;;;;;;9950583;28;20047;-72
2023/07/12 17:55:12;;;;;;;14.65;10.00;;;;;;;;;;9959332;28;20477;-71
2023/07/12 18:00:08;;;;;;;15.25;9.35;;;;;;;;;;9972447;28;20049;-73
2023/07/12 18:05:03;;;;;;;15.43;10.00;;;;;;;;;;9954921;28;20047;-73
2023/07/12 18:09:55;;;;;;;12.60;8.43;;;;;;;;;;9973196;28;20058;-73
2023/07/12 18:14:48;;;;;;;13.65;9.02;;;;;;;;;;9957448;28;20133;-74
2023/07/12 18:19:40;;;;;;;14.18;9.38;;;;;;;;;;9965671;28;20187;-74
2023/07/12 18:24:32;;;;;;;15.13;9.50;;;;;;;;;;9965780;28;20618;-73
2023/07/12 18:29:24;;;;;;;20.55;11.07;;;;;;;;;;9960383;28;20117;-69
2023/07/12 18:34:16;;;;;;;35.15;15.02;;;;;;;;;;9949918;28;20496;-67
2023/07/12 18:39:09;;;;;;;20.35;11.77;;;;;;;;;;9956571;28;20071;-69
2023/07/12 18:44:02;;;;;;;34.15;12.70;;;;;;;;;;9945297;28;20098;-69
2023/07/12 18:48:54;;;;;;;21.00;11.60;;;;;;;;;;9947826;28;20047;-68
2023/07/12 18:53:46;;;;;;;20.38;10.68;;;;;;;;;;9948514;28;20442;-68
2023/07/12 18:58:38;;;;;;;17.67;9.73;;;;;;;;;;9946150;28;20515;-68
2023/07/12 19:03:34;;;;;;;21.10;10.13;;;;;;;;;;9945579;28;20088;-68
2023/07/12 19:08:26;;;;;;;13.73;9.30;;;;;;;;;;9963066;28;20404;-68
2023/07/12 19:13:18;;;;;;;18.40;9.55;;;;;;;;;;9964915;28;20074;-67
2023/07/12 19:18:09;;;;;;;18.83;10.15;;;;;;;;;;9961108;28;20101;-69
2023/07/12 19:23:02;;;;;;;22.58;10.05;;;;;;;;;;9948688;28;20078;-67
2023/07/12 19:27:54;;;;;;;15.52;8.23;;;;;;;;;;9948128;28;20377;-68
2023/07/12 19:32:46;;;;;;;11.20;8.40;;;;;;;;;;9948333;28;20042;-66
2023/07/12 19:37:38;;;;;;;11.90;8.63;;;;;;;;;;9948331;28;20826;-67
2023/07/12 19:42:30;;;;;;;21.40;9.52;;;;;;;;;;9948520;28;20047;-68
2023/07/12 19:47:22;;;;;;;12.63;8.80;;;;;;;;;;9948347;28;20145;-69
2023/07/12 19:52:16;;;;;;;9.85;8.18;;;;;;;;;;9948549;28;20046;-68
2023/07/12 19:57:16;;;;;;;12.30;9.18;;;;;;;;;;9945677;28;20119;-68
2023/07/12 20:02:16;;;;;;;19.27;9.88;;;;;;;;;;9928020;28;20047;-66
2023/07/12 20:07:08;;;;;;;16.27;8.63;;;;;;;;;;9946285;28;20051;-68
2023/07/12 20:12:04;;;;;;;10.65;8.48;;;;;;;;;;9943203;28;20050;-70
2023/07/12 20:16:56;;;;;;;15.50;8.55;;;;;;;;;;9947875;28;20141;-70
2023/07/12 20:21:48;;;;;;;10.65;8.18;;;;;;;;;;9947411;28;20385;-70
2023/07/12 20:26:40;;;;;;;10.88;8.38;;;;;;;;;;9941493;28;20651;-69
2023/07/12 20:31:32;;;;;;;10.05;7.63;;;;;;;;;;9946379;28;20051;-69
2023/07/12 20:36:24;;;;;;;12.73;7.68;;;;;;;;;;9953112;28;20094;-70
2023/07/12 20:41:16;;;;;;;13.07;7.65;;;;;;;;;;9964829;28;20113;-70
2023/07/12 20:46:09;;;;;;;13.43;8.52;;;;;;;;;;9958244;28;20444;-70
2023/07/12 20:51:03;;;;;;;9.30;8.15;;;;;;;;;;9954540;28;20078;-70
2023/07/12 20:55:55;;;;;;;11.40;7.40;;;;;;;;;;9953487;28;20137;-70
2023/07/12 21:00:47;;;;;;;9.80;8.00;;;;;;;;;;9954535;28;20072;-70
2023/07/12 21:05:40;;;;;;;12.77;7.68;;;;;;;;;;9953409;28;20130;-70
2023/07/12 21:10:32;;;;;;;11.00;7.85;;;;;;;;;;9953138;28;20137;-69
2023/07/12 21:15:24;;;;;;;9.85;7.30;;;;;;;;;;9953443;28;20051;-69
2023/07/12 21:20:15;;;;;;;7.72;6.90;;;;;;;;;;9953317;28;20043;-68
2023/07/12 21:25:11;;;;;;;10.90;7.38;;;;;;;;;;9953097;28;20085;-69
2023/07/12 21:30:04;;;;;;;9.18;7.93;;;;;;;;;;9955811;28;20078;-70
2023/07/12 21:34:56;;;;;;;10.25;7.35;;;;;;;;;;9961899;28;20425;-70
2023/07/12 21:39:48;;;;;;;8.35;6.93;;;;;;;;;;9952253;28;20073;-70
2023/07/12 21:44:39;;;;;;;7.78;7.07;;;;;;;;;;9952636;28;20373;-70
2023/07/12 21:49:31;;;;;;;9.13;7.05;;;;;;;;;;9949873;28;20089;-70
2023/07/12 21:54:23;;;;;;;9.90;7.88;;;;;;;;;;9951980;28;20054;-70
2023/07/12 21:59:15;;;;;;;7.68;6.88;;;;;;;;;;9951718;28;20070;-70
2023/07/12 22:04:07;;;;;;;11.38;6.35;;;;;;;;;;9949740;28;20105;-74
2023/07/12 22:08:59;;;;;;;9.73;6.63;;;;;;;;;;9942433;28;20107;-74
2023/07/12 22:13:52;;;;;;;8.70;6.55;;;;;;;;;;9943457;28;20050;-73
2023/07/12 22:18:44;;;;;;;9.95;7.60;;;;;;;;;;9945378;28;20087;-73
2023/07/12 22:23:41;;;;;;;9.73;7.25;;;;;;;;;;9946402;28;20054;-73
2023/07/12 22:28:34;;;;;;;10.18;6.95;;;;;;;;;;9947247;28;20418;-72
2023/07/12 22:33:25;;;;;;;12.05;7.18;;;;;;;;;;9947789;28;20047;-72
2023/07/12 22:38:17;;;;;;;8.52;7.00;;;;;;;;;;9949866;28;20113;-72
2023/07/12 22:43:09;;;;;;;7.65;6.63;;;;;;;;;;9947420;28;20047;-73
2023/07/12 22:48:01;;;;;;;15.18;8.32;;;;;;;;;;9948775;28;20054;-72
2023/07/12 22:52:53;;;;;;;14.27;7.05;;;;;;;;;;9947325;28;20051;-72
2023/07/12 22:57:45;;;;;;;9.00;6.70;;;;;;;;;;9946006;28;20417;-72
2023/07/12 23:02:37;;;;;;;8.02;6.43;;;;;;;;;;9947036;28;20049;-72
2023/07/12 23:07:29;;;;;;;7.45;6.40;;;;;;;;;;9947268;28;20042;-71
2023/07/12 23:12:21;;;;;;;8.40;6.75;;;;;;;;;;9956709;28;20162;-69
2023/07/12 23:17:12;;;;;;;8.32;7.25;;;;;;;;;;9970601;28;20055;-71
2023/07/12 23:22:05;;;;;;;7.28;6.57;;;;;;;;;;9945162;28;20043;-72
2023/07/12 23:27:03;;;;;;;9.85;6.57;;;;;;;;;;9961013;28;20488;-71
2023/07/12 23:31:55;;;;;;;10.20;7.63;;;;;;;;;;9953250;28;20090;-72
2023/07/12 23:36:49;;;;;;;8.90;6.35;;;;;;;;;;9950076;28;20070;-72
2023/07/12 23:41:45;;;;;;;6.93;6.20;;;;;;;;;;9976912;28;20108;-71
2023/07/12 23:46:37;;;;;;;8.68;6.22;;;;;;;;;;9945839;28;20084;-72
2023/07/12 23:51:29;;;;;;;7.68;6.43;;;;;;;;;;9945221;28;20042;-72
2023/07/12 23:56:21;;;;;;;8.02;6.13;;;;;;;;;;9965750;28;20369;-72
